Time;durP1;ratioP1;P1;durP2;ratioP2;P2;SDS_P1;SDS_P2;PMS_P1;PMS_P2;Temp;Humidity;BMP_temperature;BMP_pressure;BME280_temperature;BME280_humidity;BME280_pressure;Samples;Min_cycle;Max_cycle;Signal;HPM_P1;HPM_P2
2024/02/07 00:01:00;;;;;;;2.83;1.77;;;;;;;;;;5110099;28;20026;-90
2024/02/07 00:03:26;;;;;;;6.43;2.28;;;;;;;;;;5093336;28;20390;-90
2024/02/07 00:05:52;;;;;;;2.55;1.55;;;;;;;;;;5110315;28;20031;-88
2024/02/07 00:08:18;;;;;;;3.70;1.52;;;;;;;;;;5098849;28;20042;-90
2024/02/07 00:10:43;;;;;;;1.48;1.20;;;;;;;;;;5088006;28;20497;-91
2024/02/07 00:13:09;;;;;;;2.40;1.40;;;;;;;;;;5111154;28;20138;-89
2024/02/07 00:15:35;;;;;;;5.50;1.60;;;;;;;;;;5092562;28;20019;-88
2024/02/07 00:18:01;;;;;;;4.18;1.58;;;;;;;;;;5110416;28;20027;-91
2024/02/07 00:20:27;;;;;;;8.13;1.77;;;;;;;;;;5094689;28;20379;-90
2024/02/07 00:22:53;;;;;;;3.42;1.98;;;;;;;;;;5092927;28;20050;-90
2024/02/07 00:25:19;;;;;;;1.55;1.30;;;;;;;;;;5111853;28;20074;-89
2024/02/07 00:27:45;;;;;;;3.15;1.45;;;;;;;;;;5093589;28;20076;-91
2024/02/07 00:30:11;;;;;;;6.32;1.70;;;;;;;;;;5103899;28;20024;-88
2024/02/07 00:32:37;;;;;;;2.83;1.75;;;;;;;;;;5109161;28;20039;-90
2024/02/07 00:35:03;;;;;;;2.13;1.55;;;;;;;;;;5111011;28;20243;-90
2024/02/07 00:37:29;;;;;;;2.90;1.83;;;;;;;;;;5105994;28;20069;-91
2024/02/07 00:39:55;;;;;;;2.05;1.55;;;;;;;;;;5108834;28;20023;-87
2024/02/07 00:42:21;;;;;;;2.08;1.50;;;;;;;;;;5105059;28;20583;-89
2024/02/07 00:44:46;;;;;;;2.42;1.83;;;;;;;;;;5107997;28;20227;-88
2024/02/07 00:47:12;;;;;;;2.70;1.75;;;;;;;;;;5109350;28;20032;-90
2024/02/07 00:49:38;;;;;;;1.33;1.23;;;;;;;;;;5111775;28;20075;-90
2024/02/07 00:52:05;;;;;;;3.03;1.67;;;;;;;;;;5105983;28;20435;-89
2024/02/07 00:54:31;;;;;;;3.90;2.05;;;;;;;;;;5104009;28;20355;-91
2024/02/07 00:56:57;;;;;;;1.35;1.10;;;;;;;;;;5092858;28;20049;-89
2024/02/07 00:59:23;;;;;;;1.58;1.45;;;;;;;;;;5115402;28;20035;-90
2024/02/07 01:01:49;;;;;;;4.35;1.00;;;;;;;;;;5113027;28;20032;-88
2024/02/07 01:04:15;;;;;;;0.82;0.45;;;;;;;;;;5107847;28;20479;-87
2024/02/07 01:06:41;;;;;;;0.30;0.30;;;;;;;;;;5112573;28;20076;-90
2024/02/07 01:09:10;;;;;;;0.35;0.30;;;;;;;;;;5094633;27;21341;-90
2024/02/07 01:11:36;;;;;;;0.73;0.40;;;;;;;;;;5091692;28;20034;-89
2024/02/07 01:14:01;;;;;;;0.30;0.30;;;;;;;;;;5107395;28;20028;-88
2024/02/07 01:16:27;;;;;;;0.30;0.30;;;;;;;;;;5113631;28;20482;-89
2024/02/07 01:18:53;;;;;;;0.63;0.28;;;;;;;;;;5107576;28;20035;-90
2024/02/07 01:21:19;;;;;;;0.30;0.30;;;;;;;;;;5112010;28;20112;-87
2024/02/07 01:23:46;;;;;;;0.20;0.20;;;;;;;;;;5093307;28;20023;-87
2024/02/07 01:26:15;;;;;;;0.30;0.30;;;;;;;;;;5106964;27;20016;-90
2024/02/07 01:28:41;;;;;;;0.30;0.30;;;;;;;;;;5110747;28;20019;-90
2024/02/07 01:31:08;;;;;;;0.20;0.20;;;;;;;;;;5120672;27;20023;-88
2024/02/07 01:33:35;;;;;;;0.32;0.32;;;;;;;;;;5095962;28;20055;-89
2024/02/07 01:36:00;;;;;;;0.75;0.20;;;;;;;;;;5093049;28;20031;-90
2024/02/07 01:38:26;;;;;;;0.43;0.40;;;;;;;;;;5109702;28;20028;-89
2024/02/07 01:40:57;;;;;;;0.82;0.40;;;;;;;;;;5107221;27;20081;-88
2024/02/07 01:43:28;;;;;;;3.45;0.70;;;;;;;;;;5111322;27;20049;-88
2024/02/07 01:45:54;;;;;;;1.92;0.73;;;;;;;;;;5106814;27;20478;-87
2024/02/07 01:48:20;;;;;;;3.05;0.80;;;;;;;;;;5109552;28;20028;-87
2024/02/07 01:50:46;;;;;;;0.95;0.63;;;;;;;;;;5111796;27;20054;-87
2024/02/07 01:53:12;;;;;;;1.27;0.60;;;;;;;;;;5108595;28;20078;-88
2024/02/07 01:55:39;;;;;;;1.17;0.50;;;;;;;;;;5112777;27;20077;-88
2024/02/07 01:58:05;;;;;;;0.10;0.10;;;;;;;;;;5104118;27;20494;-87
2024/02/07 02:00:35;;;;;;;0.20;0.20;;;;;;;;;;5109622;27;20389;-87
2024/02/07 02:03:03;;;;;;;0.32;0.32;;;;;;;;;;5106174;28;20501;-88
2024/02/07 02:05:29;;;;;;;0.43;0.40;;;;;;;;;;5109288;28;20123;-89
2024/02/07 02:07:57;;;;;;;0.93;0.35;;;;;;;;;;5107019;28;20118;-88
2024/02/07 02:10:23;;;;;;;0.82;0.60;;;;;;;;;;5110822;28;20044;-89
2024/02/07 02:12:49;;;;;;;3.10;0.75;;;;;;;;;;5107032;28;20028;-89
2024/02/07 02:15:15;;;;;;;0.75;0.75;;;;;;;;;;5092955;28;20031;-89
2024/02/07 02:17:41;;;;;;;1.10;0.20;;;;;;;;;;5109722;28;20027;-90
2024/02/07 02:20:09;;;;;;;0.10;0.10;;;;;;;;;;5111940;28;20019;-89
2024/02/07 02:22:46;;;;;;;0.30;0.30;;;;;;;;;;5108344;27;20568;-91
2024/02/07 02:25:12;;;;;;;0.20;0.20;;;;;;;;;;5109710;28;20031;-87
2024/02/07 02:27:38;;;;;;;0.13;0.10;;;;;;;;;;5111144;27;20031;-89
2024/02/07 02:30:11;;;;;;;0.10;0.10;;;;;;;;;;5111309;28;20028;-89
2024/02/07 02:32:42;;;;;;;0.20;0.20;;;;;;;;;;5109558;28;20359;-88
2024/02/07 02:35:08;;;;;;;0.10;0.10;;;;;;;;;;5106486;28;20028;-91
2024/02/07 02:37:35;;;;;;;0.08;0.08;;;;;;;;;;5107813;28;20027;-90
2024/02/07 02:40:05;;;;;;;0.10;0.10;;;;;;;;;;5094300;28;20432;-90
2024/02/07 02:42:31;;;;;;;0.10;0.10;;;;;;;;;;5101648;27;20115;-90
2024/02/07 02:44:57;;;;;;;0.30;0.30;;;;;;;;;;5109385;27;20381;-89
2024/02/07 02:47:23;;;;;;;0.10;0.10;;;;;;;;;;5109737;28;20027;-89
2024/02/07 02:49:49;;;;;;;0.10;0.10;;;;;;;;;;5113463;27;20047;-89
2024/02/07 02:52:16;;;;;;;2.38;0.47;;;;;;;;;;5110987;28;20245;-87
2024/02/07 02:54:43;;;;;;;0.52;0.30;;;;;;;;;;5094780;28;20024;-88
2024/02/07 02:57:09;;;;;;;0.43;0.40;;;;;;;;;;5108648;27;20024;-88
2024/02/07 02:59:35;;;;;;;0.50;0.40;;;;;;;;;;5107090;27;20080;-91
2024/02/07 03:02:09;;;;;;;3.75;0.80;;;;;;;;;;5109172;27;20026;-87
2024/02/07 03:04:41;;;;;;;0.52;0.47;;;;;;;;;;5107991;28;20022;-88
2024/02/07 03:09:53;;;;;;;0.60;0.60;;;;;;;;;;5109953;28;20088;-87
2024/02/07 03:12:19;;;;;;;0.70;0.50;;;;;;;;;;5090809;28;20015;-88
2024/02/07 03:14:45;;;;;;;2.65;0.60;;;;;;;;;;5107286;28;20065;-88
2024/02/07 03:17:12;;;;;;;0.30;0.30;;;;;;;;;;5108743;27;20044;-87
2024/02/07 03:19:38;;;;;;;3.95;0.50;;;;;;;;;;5107812;28;20020;-87
2024/02/07 03:22:04;;;;;;;1.35;0.38;;;;;;;;;;5108366;28;20032;-88
2024/02/07 03:24:31;;;;;;;0.73;0.35;;;;;;;;;;5110516;28;20035;-89
2024/02/07 03:26:57;;;;;;;0.35;0.35;;;;;;;;;;5108764;28;20028;-87
2024/02/07 03:29:25;;;;;;;1.65;0.30;;;;;;;;;;5108336;28;20023;-88
2024/02/07 03:31:51;;;;;;;0.38;0.38;;;;;;;;;;5100762;28;20112;-86
2024/02/07 03:34:17;;;;;;;1.58;0.60;;;;;;;;;;5110689;28;20213;-90
2024/02/07 03:36:43;;;;;;;0.10;0.10;;;;;;;;;;5110311;28;20034;-90
2024/02/07 03:39:09;;;;;;;0.10;0.10;;;;;;;;;;5111297;28;20018;-89
2024/02/07 03:41:35;;;;;;;0.17;0.17;;;;;;;;;;5095201;28;20030;-90
2024/02/07 03:44:02;;;;;;;0.10;0.10;;;;;;;;;;5113822;28;20095;-89
2024/02/07 03:46:28;;;;;;;0.57;0.20;;;;;;;;;;5112863;28;20028;-89
2024/02/07 03:48:54;;;;;;;0.20;0.20;;;;;;;;;;5112986;28;20024;-92
2024/02/07 03:51:27;;;;;;;0.30;0.30;;;;;;;;;;5116090;28;20035;-91
2024/02/07 03:53:53;;;;;;;0.30;0.30;;;;;;;;;;5090738;28;20031;-90
2024/02/07 03:56:20;;;;;;;2.92;0.45;;;;;;;;;;5116251;28;20023;-90
2024/02/07 03:58:46;;;;;;;0.20;0.20;;;;;;;;;;5116328;28;20030;-90
2024/02/07 04:01:16;;;;;;;0.30;0.30;;;;;;;;;;5114002;28;20024;-90
2024/02/07 04:03:42;;;;;;;0.20;0.20;;;;;;;;;;5094955;28;20026;-89
2024/02/07 04:06:08;;;;;;;0.10;0.10;;;;;;;;;;5111048;28;20465;-88
2024/02/07 04:08:34;;;;;;;0.10;0.10;;;;;;;;;;5110170;28;20030;-90
2024/02/07 04:11:03;;;;;;;0.10;0.10;;;;;;;;;;5111051;28;20077;-89
2024/02/07 05:16:16;;;;;;;0.10;0.10;;;;;;;;;;5111691;27;20069;-88
2024/02/07 05:18:42;;;;;;;0.82;0.30;;;;;;;;;;5110499;28;20016;-87
2024/02/07 05:21:11;;;;;;;0.32;0.20;;;;;;;;;;5114684;27;20130;-89
2024/02/07 05:23:37;;;;;;;0.10;0.10;;;;;;;;;;5111017;27;20462;-89
2024/02/07 05:26:04;;;;;;;0.13;0.13;;;;;;;;;;5090706;28;20035;-89
2024/02/07 05:28:30;;;;;;;0.17;0.17;;;;;;;;;;5109733;27;20090;-89
2024/02/07 05:30:56;;;;;;;0.65;0.65;;;;;;;;;;5107414;27;20036;-89
2024/02/07 05:33:22;;;;;;;0.10;0.10;;;;;;;;;;5112120;28;20032;-89
2024/02/07 05:35:48;;;;;;;0.77;0.20;;;;;;;;;;5115236;27;20037;-89
2024/02/07 05:38:14;;;;;;;4.82;0.52;;;;;;;;;;5110268;27;20036;-87
2024/02/07 05:40:39;;;;;;;0.20;0.20;;;;;;;;;;5109634;27;20024;-88
2024/02/07 05:43:06;;;;;;;0.10;0.10;;;;;;;;;;5110479;28;20028;-88
2024/02/07 05:45:32;;;;;;;1.75;0.45;;;;;;;;;;5106744;28;20027;-88
2024/02/07 05:47:58;;;;;;;0.10;0.10;;;;;;;;;;5107000;27;20473;-89
2024/02/07 05:50:24;;;;;;;0.28;0.28;;;;;;;;;;5111075;28;20063;-89
2024/02/07 05:52:51;;;;;;;0.25;0.20;;;;;;;;;;5111425;28;20027;-87
2024/02/07 05:55:17;;;;;;;0.95;0.40;;;;;;;;;;5112078;28;20035;-89
2024/02/07 05:57:43;;;;;;;0.70;0.20;;;;;;;;;;5109855;28;20465;-86
2024/02/07 06:00:10;;;;;;;5.53;0.50;;;;;;;;;;5108011;27;20038;-88
2024/02/07 06:02:36;;;;;;;0.45;0.20;;;;;;;;;;5104746;27;20027;-90
2024/02/07 06:05:03;;;;;;;0.20;0.20;;;;;;;;;;5106726;27;20028;-88
2024/02/07 06:07:29;;;;;;;;;;;;;;;;;;5114247;28;20027;-87
2024/02/07 06:09:56;;;;;;;;;;;;;;;;;;5115245;28;19997;-92
2024/02/07 06:12:22;;;;;;;;;;;;;;;;;;5097959;28;19931;-91
2024/02/07 06:14:48;;;;;;;;;;;;;;;;;;5124881;28;20477;-91
2024/02/07 06:17:13;;;;;;;;;;;;;;;;;;5129370;28;19904;-91
2024/02/07 06:19:39;;;;;;;;;;;;;;;;;;5107998;28;19904;-90
2024/02/07 06:22:05;;;;;;;;;;;;;;;;;;5111362;28;19904;-89
2024/02/07 06:24:31;;;;;;;;;;;;;;;;;;5115439;28;20373;-88
2024/02/07 06:26:57;;;;;;;;;;;;;;;;;;5114740;28;19910;-88
2024/02/07 06:29:23;;;;;;;;;;;;;;;;;;5111758;28;19908;-88
2024/02/07 06:31:49;;;;;;;;;;;;;;;;;;5113413;28;19946;-89
2024/02/07 06:34:15;;;;;;;;;;;;;;;;;;5103427;28;19929;-89
2024/02/07 06:36:41;;;;;;;;;;;;;;;;;;5112712;27;19908;-87
2024/02/07 06:39:06;;;;;;;;;;;;;;;;;;5110665;27;19907;-86
2024/02/07 06:41:32;;;;;;;;;;;;;;;;;;5110844;27;19915;-89
2024/02/07 06:43:58;;;;;;;;;;;;;;;;;;5115732;28;19911;-89
2024/02/07 06:46:24;;;;;;;;;;;;;;;;;;5114170;28;19942;-87
2024/02/07 06:48:50;;;;;;;;;;;;;;;;;;5113533;27;19911;-87
2024/02/07 06:51:16;;;;;;;;;;;;;;;;;;5112592;28;19919;-89
2024/02/07 06:53:42;;;;;;;;;;;;;;;;;;5093139;28;19907;-88
2024/02/07 06:56:08;;;;;;;;;;;;;;;;;;5113592;28;19930;-87
2024/02/07 06:58:34;;;;;;;;;;;;;;;;;;5113981;28;19971;-88
2024/02/07 07:01:00;;;;;;;;;;;;;;;;;;5112865;28;19908;-89
2024/02/07 07:03:26;;;;;;;;;;;;;;;;;;5108739;28;19914;-88
2024/02/07 07:05:52;;;;;;;;;;;;;;;;;;5108281;28;20400;-87
2024/02/07 07:08:17;;;;;;;;;;;;;;;;;;5093044;28;19915;-89
2024/02/07 07:10:43;;;;;;;;;;;;;;;;;;5111875;28;20354;-88
2024/02/07 07:13:09;;;;;;;;;;;;;;;;;;5111984;28;20614;-88
2024/02/07 07:15:35;;;;;;;;;;;;;;;;;;5112074;28;19935;-89
2024/02/07 07:18:01;;;;;;;;;;;;;;;;;;5113260;28;20392;-86
2024/02/07 07:20:31;;;;;;;;;;;;;;;;;;5113207;28;19927;-89
2024/02/07 07:22:57;;;;;;;;;;;;;;;;;;5085425;28;19957;-88
2024/02/07 07:25:23;;;;;;;;;;;;;;;;;;5104111;28;20296;-88
2024/02/07 07:27:48;;;;;;;;;;;;;;;;;;5113518;28;19914;-91
2024/02/07 07:30:14;;;;;;;;;;;;;;;;;;5096485;28;19912;-88
2024/02/07 07:32:40;;;;;;;;;;;;;;;;;;5112824;28;20031;-88
2024/02/07 07:35:06;;;;;;;;;;;;;;;;;;5113027;28;19949;-88
2024/02/07 07:37:32;;;;;;;;;;;;;;;;;;5126608;27;20251;-89
2024/02/07 07:39:58;;;;;;;;;;;;;;;;;;5110204;28;20363;-87
2024/02/07 07:42:24;;;;;;;;;;;;;;;;;;5113882;28;19912;-89
2024/02/07 07:44:50;;;;;;;;;;;;;;;;;;5112097;28;19999;-89
2024/02/07 07:47:15;;;;;;;;;;;;;;;;;;5113399;28;19994;-88
2024/02/07 07:49:41;;;;;;;;;;;;;;;;;;5113306;28;19919;-89
2024/02/07 07:52:08;;;;;;;;;;;;;;;;;;5114064;28;20415;-88
2024/02/07 07:54:37;;;;;;;;;;;;;;;;;;5113156;28;19907;-87
2024/02/07 07:57:02;;;;;;;;;;;;;;;;;;5110498;28;19908;-88
2024/02/07 07:59:28;;;;;;;;;;;;;;;;;;5098913;28;20365;-89
2024/02/07 08:01:54;;;;;;;;;;;;;;;;;;5113901;28;19908;-89
2024/02/07 08:04:20;;;;;;;;;;;;;;;;;;5110753;27;19911;-89
2024/02/07 08:06:46;;;;;;;;;;;;;;;;;;5110018;28;20002;-87
2024/02/07 08:09:12;;;;;;;;;;;;;;;;;;5103335;28;20346;-88
2024/02/07 08:11:38;;;;;;;;;;;;;;;;;;5115163;28;19912;-87
2024/02/07 08:14:04;;;;;;;;;;;;;;;;;;5120601;28;19908;-88
2024/02/07 08:16:30;;;;;;;;;;;;;;;;;;5119071;28;19904;-88
2024/02/07 08:18:56;;;;;;;;;;;;;;;;;;5113446;28;19950;-87
2024/02/07 08:21:21;;;;;;;;;;;;;;;;;;5098794;28;19958;-86
2024/02/07 08:23:47;;;;;;;;;;;;;;;;;;5102041;28;20362;-82
2024/02/07 08:26:13;;;;;;;;;;;;;;;;;;5103089;28;19904;-86
2024/02/07 08:28:39;;;;;;;;;;;;;;;;;;5102652;28;19943;-84
2024/02/07 08:31:05;;;;;;;;;;;;;;;;;;5098495;28;20408;-84
2024/02/07 08:33:31;;;;;;;;;;;;;;;;;;5102286;28;19912;-84
2024/02/07 08:35:56;;;;;;;;;;;;;;;;;;5100784;28;21064;-87
2024/02/07 08:38:22;;;;;;;;;;;;;;;;;;5104929;28;19965;-89
2024/02/07 08:40:48;;;;;;;;;;;;;;;;;;5117540;28;19986;-87
2024/02/07 08:43:14;;;;;;;;;;;;;;;;;;5107291;28;19904;-87
2024/02/07 08:45:40;;;;;;;;;;;;;;;;;;5102092;28;19912;-87
2024/02/07 08:48:06;;;;;;;;;;;;;;;;;;5113421;28;19908;-91
2024/02/07 08:50:32;;;;;;;;;;;;;;;;;;5109402;28;19958;-86
2024/02/07 08:52:58;;;;;;;;;;;;;;;;;;5104631;28;19915;-87
2024/02/07 08:55:23;;;;;;;;;;;;;;;;;;5107635;28;20219;-90
2024/02/07 08:57:49;;;;;;;;;;;;;;;;;;5113093;28;20015;-88
2024/02/07 09:00:15;;;;;;;;;;;;;;;;;;5109381;28;19915;-87
2024/02/07 09:02:41;;;;;;;;;;;;;;;;;;5116391;28;19914;-88
2024/02/07 09:05:07;;;;;;;;;;;;;;;;;;5108521;28;19914;-88
2024/02/07 09:07:33;;;;;;;;;;;;;;;;;;5109752;28;19907;-88
2024/02/07 09:09:59;;;;;;;;;;;;;;;;;;5112064;28;19911;-85
2024/02/07 09:12:24;;;;;;;;;;;;;;;;;;5105043;28;19972;-87
2024/02/07 09:14:50;;;;;;;;;;;;;;;;;;5106303;28;20351;-86
2024/02/07 09:17:16;;;;;;;;;;;;;;;;;;5112347;28;19915;-87
2024/02/07 09:19:42;;;;;;;;;;;;;;;;;;5113464;28;19931;-86
2024/02/07 09:22:08;;;;;;;;;;;;;;;;;;5111626;27;19976;-86
2024/02/07 09:24:34;;;;;;;;;;;;;;;;;;5112240;27;19912;-86
2024/02/07 09:27:00;;;;;;;;;;;;;;;;;;5110902;28;19915;-87
2024/02/07 09:29:25;;;;;;;;;;;;;;;;;;5106660;28;19943;-85
2024/02/07 09:31:51;;;;;;;;;;;;;;;;;;5107282;28;20028;-87
2024/02/07 09:34:17;;;;;;;;;;;;;;;;;;5112607;28;19908;-86
2024/02/07 09:36:43;;;;;;;;;;;;;;;;;;5112418;27;19911;-87
2024/02/07 09:39:09;;;;;;;;;;;;;;;;;;5106937;28;19908;-88
2024/02/07 09:41:35;;;;;;;;;;;;;;;;;;5115106;27;20077;-88
2024/02/07 09:44:02;;;;;;;;;;;;;;;;;;5117370;28;19908;-87
2024/02/07 09:46:28;;;;;;;;;;;;;;;;;;5093660;28;19907;-87
2024/02/07 09:48:54;;;;;;;;;;;;;;;;;;5117103;28;19922;-88
2024/02/07 09:51:20;;;;;;;;;;;;;;;;;;5115565;28;20038;-90
2024/02/07 09:53:46;;;;;;;;;;;;;;;;;;5096608;28;19915;-91
2024/02/07 09:56:12;;;;;;;;;;;;;;;;;;5117362;28;19934;-86
2024/02/07 09:58:37;;;;;;;;;;;;;;;;;;5108565;27;20447;-88
2024/02/07 10:01:06;;;;;;;;;;;;;;;;;;5107655;28;19908;-87
2024/02/07 10:03:32;;;;;;;;;;;;;;;;;;5109098;28;19912;-87
2024/02/07 10:05:58;;;;;;;;;;;;;;;;;;5114983;28;19912;-87
2024/02/07 10:08:26;;;;;;;;;;;;;;;;;;5110950;28;19915;-89
2024/02/07 10:10:52;;;;;;;;;;;;;;;;;;5115216;28;19935;-88
2024/02/07 10:13:18;;;;;;;;;;;;;;;;;;5112464;28;19962;-90
2024/02/07 10:15:44;;;;;;;;;;;;;;;;;;5112362;28;20525;-87
2024/02/07 10:18:09;;;;;;;;;;;;;;;;;;5116249;28;19929;-88
2024/02/07 10:20:35;;;;;;;;;;;;;;;;;;5112056;27;19918;-88
2024/02/07 10:23:01;;;;;;;;;;;;;;;;;;5111240;28;19911;-85
2024/02/07 10:25:27;;;;;;;;;;;;;;;;;;5095281;28;19914;-89
2024/02/07 10:27:53;;;;;;;;;;;;;;;;;;5111025;28;19911;-88
2024/02/07 10:30:19;;;;;;;;;;;;;;;;;;5112159;28;20612;-86
2024/02/07 10:32:45;;;;;;;;;;;;;;;;;;5110768;28;20534;-87
2024/02/07 10:35:11;;;;;;;;;;;;;;;;;;5107701;28;19916;-87
2024/02/07 10:37:36;;;;;;;;;;;;;;;;;;5090128;27;19950;-88
2024/02/07 10:40:02;;;;;;;;;;;;;;;;;;5107726;27;19908;-87
2024/02/07 10:42:28;;;;;;;;;;;;;;;;;;5111199;28;19954;-88
2024/02/07 10:44:54;;;;;;;;;;;;;;;;;;5112683;28;20342;-85
2024/02/07 10:47:20;;;;;;;;;;;;;;;;;;5113109;28;20489;-87
2024/02/07 10:49:46;;;;;;;;;;;;;;;;;;5115019;28;19916;-87
2024/02/07 10:52:12;;;;;;;;;;;;;;;;;;5115068;28;19912;-88
2024/02/07 10:54:38;;;;;;;;;;;;;;;;;;5113191;28;20463;-87
2024/02/07 10:57:04;;;;;;;;;;;;;;;;;;5115379;28;19903;-88
2024/02/07 10:59:31;;;;;;;;;;;;;;;;;;5104590;27;19911;-85
2024/02/07 11:01:56;;;;;;;;;;;;;;;;;;5108593;28;19908;-83
2024/02/07 11:04:22;;;;;;;;;;;;;;;;;;5108812;28;19912;-82
2024/02/07 11:06:48;;;;;;;;;;;;;;;;;;5101809;28;20014;-83
2024/02/07 11:09:14;;;;;;;;;;;;;;;;;;5109153;28;19904;-82
2024/02/07 11:11:40;;;;;;;;;;;;;;;;;;5109840;28;20262;-84
2024/02/07 11:14:07;;;;;;;;;;;;;;;;;;5108597;28;19911;-83
2024/02/07 11:16:33;;;;;;;;;;;;;;;;;;5108641;28;20429;-84
2024/02/07 11:18:59;;;;;;;;;;;;;;;;;;5110275;28;19904;-83
2024/02/07 11:21:26;;;;;;;;;;;;;;;;;;5107022;28;22719;-82
2024/02/07 11:23:52;;;;;;;;;;;;;;;;;;5098664;28;19912;-84
2024/02/07 11:26:18;;;;;;;;;;;;;;;;;;5107378;28;19931;-83
2024/02/07 11:28:44;;;;;;;;;;;;;;;;;;5107353;28;20386;-84
2024/02/07 11:31:10;;;;;;;;;;;;;;;;;;5107274;28;19912;-83
2024/02/07 11:33:36;;;;;;;;;;;;;;;;;;5108208;28;19937;-84
2024/02/07 11:36:06;;;;;;;3.08;0.55;;;;;;;;;;5106932;28;20423;-84
2024/02/07 11:38:31;;;;;;;;;;;;;;;;;;5107137;28;20031;-83
2024/02/07 11:40:57;;;;;;;;;;;;;;;;;;5103239;28;19915;-83
2024/02/07 11:43:23;;;;;;;;;;;;;;;;;;5105772;28;19910;-82
2024/02/07 11:45:52;;;;;;;;;;;;;;;;;;5104221;28;19908;-82
2024/02/07 11:48:24;;;;;;;;;;;;;;;;;;5079463;28;19907;-81
2024/02/07 11:50:59;;;;;;;;;;;;;;;;;;5105060;28;19927;-83
2024/02/07 11:53:25;;;;;;;;;;;;;;;;;;5103617;28;19915;-82
2024/02/07 11:55:51;;;;;;;;;;;;;;;;;;5089795;28;19915;-83
2024/02/07 11:58:18;;;;;;;;;;;;;;;;;;5107562;28;20378;-83
2024/02/07 12:00:46;;;;;;;;;;;;;;;;;;5108517;28;19935;-84
2024/02/07 12:03:12;;;;;;;;;;;;;;;;;;5105302;28;19907;-82
2024/02/07 12:05:38;;;;;;;;;;;;;;;;;;5101228;28;19994;-82
2024/02/07 12:08:04;;;;;;;;;;;;;;;;;;5103244;28;20034;-82
2024/02/07 12:10:30;;;;;;;;;;;;;;;;;;5099864;28;20000;-82
2024/02/07 12:12:56;;;;;;;;;;;;;;;;;;5088394;28;19911;-82
2024/02/07 12:15:23;;;;;;;;;;;;;;;;;;5104983;28;20018;-82
2024/02/07 12:17:48;;;;;;;;;;;;;;;;;;5104236;28;19916;-82
2024/02/07 12:20:14;;;;;;;;;;;;;;;;;;5105755;28;20380;-82
2024/02/07 12:22:40;;;;;;;;;;;;;;;;;;5105433;28;19950;-82
2024/02/07 12:25:06;;;;;;;;;;;;;;;;;;5105668;28;19907;-82
2024/02/07 12:27:32;;;;;;;;;;;;;;;;;;5103598;28;19995;-82
2024/02/07 12:29:58;;;;;;;;;;;;;;;;;;5103602;28;20261;-81
2024/02/07 12:32:24;;;;;;;;;;;;;;;;;;5101625;28;20076;-82
2024/02/07 12:34:50;;;;;;;;;;;;;;;;;;5105786;28;20006;-81
2024/02/07 12:37:15;;;;;;;;;;;;;;;;;;5106306;28;20469;-81
2024/02/07 12:39:42;;;;;;;;;;;;;;;;;;5103516;28;19908;-81
2024/02/07 12:42:07;;;;;;;;;;;;;;;;;;5101635;28;19960;-82
2024/02/07 12:44:33;;;;;;;;;;;;;;;;;;5101988;28;19911;-82
2024/02/07 12:46:59;;;;;;;;;;;;;;;;;;5103095;28;20318;-82
2024/02/07 12:49:25;;;;;;;;;;;;;;;;;;5081578;28;20327;-82
2024/02/07 12:51:51;;;;;;;;;;;;;;;;;;5101883;28;19919;-82
2024/02/07 12:54:17;;;;;;;;;;;;;;;;;;5098339;28;19914;-82
2024/02/07 12:56:43;;;;;;;;;;;;;;;;;;5105931;28;19904;-82
2024/02/07 12:59:08;;;;;;;;;;;;;;;;;;5112138;28;19919;-82
2024/02/07 13:01:34;;;;;;;;;;;;;;;;;;5109129;28;19941;-82
2024/02/07 13:04:00;;;;;;;;;;;;;;;;;;5100432;28;19905;-82
2024/02/07 13:06:26;;;;;;;;;;;;;;;;;;5105302;28;19907;-82
2024/02/07 13:08:52;;;;;;;;;;;;;;;;;;5111999;28;20286;-80
2024/02/07 13:11:18;;;;;;;;;;;;;;;;;;5111891;28;20016;-81
2024/02/07 13:13:44;;;;;;;;;;;;;;;;;;5112555;28;19911;-81
2024/02/07 13:16:10;;;;;;;;;;;;;;;;;;5105524;28;19935;-81
2024/02/07 13:18:35;;;;;;;;;;;;;;;;;;5110903;28;19911;-81
2024/02/07 13:21:05;;;;;;;;;;;;;;;;;;5111894;28;19910;-81
2024/02/07 13:23:33;;;;;;;;;;;;;;;;;;5107734;28;19908;-81
2024/02/07 13:25:59;;;;;;;;;;;;;;;;;;5104897;28;19968;-82
2024/02/07 13:28:25;;;;;;;;;;;;;;;;;;5096785;28;20151;-80
2024/02/07 13:30:50;;;;;;;;;;;;;;;;;;5105235;27;20007;-81
2024/02/07 13:33:16;;;;;;;;;;;;;;;;;;5103624;28;20010;-82
2024/02/07 13:35:42;;;;;;;;;;;;;;;;;;5108065;28;20024;-82
2024/02/07 13:38:08;;;;;;;;;;;;;;;;;;5107288;28;20597;-81
2024/02/07 13:40:34;;;;;;;;;;;;;;;;;;5103028;28;20201;-82
2024/02/07 13:43:00;;;;;;;;;;;;;;;;;;5107836;28;20278;-81
2024/02/07 13:45:26;;;;;;;;;;;;;;;;;;5107450;28;19946;-81
2024/02/07 13:47:51;;;;;;;;;;;;;;;;;;5109269;28;19994;-81
2024/02/07 13:50:17;;;;;;;;;;;;;;;;;;5105408;28;19916;-81
2024/02/07 13:52:43;;;;;;;;;;;;;;;;;;5107301;28;19912;-81
2024/02/07 13:55:09;;;;;;;;;;;;;;;;;;5098125;28;19919;-81
2024/02/07 13:57:38;;;;;;;;;;;;;;;;;;5098803;28;19938;-81
2024/02/07 14:00:03;;;;;;;;;;;;;;;;;;5106714;28;20020;-81
2024/02/07 14:02:29;;;;;;;;;;;;;;;;;;5093156;28;19998;-82
2024/02/07 14:04:55;;;;;;;;;;;;;;;;;;5096548;28;19915;-79
2024/02/07 14:07:21;;;;;;;;;;;;;;;;;;5108202;28;19915;-81
2024/02/07 14:09:48;;;;;;;;;;;;;;;;;;5103282;28;19912;-81
2024/02/07 14:12:14;;;;;;;;;;;;;;;;;;5105996;28;19919;-79
2024/02/07 14:14:40;;;;;;;;;;;;;;;;;;5094779;28;19912;-80
2024/02/07 14:17:06;;;;;;;;;;;;;;;;;;5083795;28;19908;-81
2024/02/07 14:19:31;;;;;;;;;;;;;;;;;;5103087;28;19953;-80
2024/02/07 14:21:57;;;;;;;;;;;;;;;;;;5104363;27;19907;-81
2024/02/07 14:24:23;;;;;;;;;;;;;;;;;;5103563;28;19915;-80
2024/02/07 14:26:49;;;;;;;;;;;;;;;;;;5102493;28;20057;-80
2024/02/07 14:29:15;;;;;;;;;;;;;;;;;;5105129;28;20285;-83
2024/02/07 14:31:41;;;;;;;;;;;;;;;;;;5082930;28;20062;-80
2024/02/07 14:34:07;;;;;;;;;;;;;;;;;;5100344;28;19912;-82
2024/02/07 14:36:32;;;;;;;;;;;;;;;;;;5108357;28;19912;-80
2024/02/07 14:38:58;;;;;;;;;;;;;;;;;;5095577;28;20015;-81
2024/02/07 14:41:24;;;;;;;;;;;;;;;;;;5105025;28;19908;-80
2024/02/07 14:43:50;;;;;;;;;;;;;;;;;;5107309;28;21119;-80
2024/02/07 14:46:16;;;;;;;;;;;;;;;;;;5106582;27;19952;-84
2024/02/07 14:48:43;;;;;;;;;;;;;;;;;;5102647;28;19915;-81
2024/02/07 14:51:09;;;;;;;;;;;;;;;;;;5104748;28;19919;-82
2024/02/07 14:53:35;;;;;;;;;;;;;;;;;;5105083;28;20246;-80
2024/02/07 14:56:01;;;;;;;;;;;;;;;;;;5104641;28;19908;-81
2024/02/07 14:58:27;;;;;;;;;;;;;;;;;;5099744;27;20306;-80
2024/02/07 15:00:53;;;;;;;;;;;;;;;;;;5103337;28;19912;-80
2024/02/07 15:03:19;;;;;;;;;;;;;;;;;;5104067;28;19927;-81
2024/02/07 15:05:45;;;;;;;;;;;;;;;;;;5105645;28;19922;-79
2024/02/07 15:08:11;;;;;;;;;;;;;;;;;;5106851;28;19907;-80
2024/02/07 15:10:37;;;;;;;;;;;;;;;;;;5107211;28;19947;-81
2024/02/07 15:13:03;;;;;;;;;;;;;;;;;;5105295;28;20364;-82
2024/02/07 15:15:29;;;;;;;;;;;;;;;;;;5104436;28;20007;-81
2024/02/07 15:17:55;;;;;;;;;;;;;;;;;;5099409;28;20335;-82
2024/02/07 15:20:21;;;;;;;;;;;;;;;;;;5102030;28;19908;-79
2024/02/07 15:22:50;;;;;;;;;;;;;;;;;;5096579;28;19907;-80
2024/02/07 15:25:15;;;;;;;;;;;;;;;;;;5102365;28;19947;-81
2024/02/07 15:27:41;;;;;;;;;;;;;;;;;;5094188;28;20294;-81
2024/02/07 15:30:07;;;;;;;;;;;;;;;;;;5090530;28;19943;-81
2024/02/07 15:32:33;;;;;;;;;;;;;;;;;;5102151;28;19918;-81
2024/02/07 15:34:59;;;;;;;;;;;;;;;;;;5106036;28;20001;-81
2024/02/07 15:37:25;;;;;;;;;;;;;;;;;;5097689;28;19916;-81
2024/02/07 15:39:51;;;;;;;;;;;;;;;;;;5105247;28;20409;-81
2024/02/07 15:42:17;;;;;;;;;;;;;;;;;;5108703;28;20320;-82
2024/02/07 15:44:43;;;;;;;;;;;;;;;;;;5103265;28;19947;-83
2024/02/07 15:47:09;;;;;;;;;;;;;;;;;;5088782;28;19916;-81
2024/02/07 15:49:37;;;;;;;;;;;;;;;;;;5098542;28;19919;-80
2024/02/07 15:52:03;;;;;;;;;;;;;;;;;;5105721;28;19951;-81
2024/02/07 15:54:29;;;;;;;;;;;;;;;;;;5101069;28;20338;-81
2024/02/07 15:56:54;;;;;;;;;;;;;;;;;;5101203;28;19922;-80
2024/02/07 15:59:20;;;;;;;;;;;;;;;;;;5101110;28;19954;-81
2024/02/07 16:01:46;;;;;;;;;;;;;;;;;;5105456;28;19908;-80
2024/02/07 16:04:12;;;;;;;;;;;;;;;;;;5099387;28;19908;-81
2024/02/07 16:06:38;;;;;;;;;;;;;;;;;;5097724;28;19977;-80
2024/02/07 16:09:04;;;;;;;;;;;;;;;;;;5098597;28;20392;-81
2024/02/07 16:11:30;;;;;;;;;;;;;;;;;;5097567;28;19975;-81
2024/02/07 16:13:55;;;;;;;;;;;;;;;;;;5096104;28;19927;-80
2024/02/07 16:16:21;;;;;;;;;;;;;;;;;;5098202;28;19915;-85
2024/02/07 16:18:47;;;;;;;;;;;;;;;;;;5077207;28;19907;-82
2024/02/07 16:21:13;;;;;;;;;;;;;;;;;;5086066;28;19915;-82
2024/02/07 16:23:39;;;;;;;;;;;;;;;;;;5106478;28;20059;-78
2024/02/07 16:26:05;;;;;;;;;;;;;;;;;;5091761;28;19911;-82
2024/02/07 16:28:31;;;;;;;;;;;;;;;;;;5104467;27;19933;-82
2024/02/07 16:30:57;;;;;;;;;;;;;;;;;;5100863;27;19912;-82
2024/02/07 16:33:22;;;;;;;;;;;;;;;;;;5093811;28;19922;-82
2024/02/07 16:35:48;;;;;;;;;;;;;;;;;;5114614;27;19908;-81
2024/02/07 16:38:14;;;;;;;;;;;;;;;;;;5116836;27;19910;-81
2024/02/07 16:40:40;;;;;;;;;;;;;;;;;;5108213;27;19992;-82
2024/02/07 16:43:06;;;;;;;;;;;;;;;;;;5113755;27;20346;-81
2024/02/07 16:45:36;;;;;;;;;;;;;;;;;;5096582;28;19911;-81
2024/02/07 16:48:01;;;;;;;;;;;;;;;;;;5113310;27;19903;-79
2024/02/07 16:50:27;;;;;;;;;;;;;;;;;;5112129;28;20809;-81
2024/02/07 16:52:53;;;;;;;;;;;;;;;;;;5117132;27;19915;-80
2024/02/07 16:55:19;;;;;;;;;;;;;;;;;;5115844;27;20055;-81
2024/02/07 16:57:45;;;;;;;;;;;;;;;;;;5107550;27;20239;-81
2024/02/07 17:00:11;;;;;;;;;;;;;;;;;;5115118;27;19914;-81
2024/02/07 17:02:37;;;;;;;;;;;;;;;;;;5114488;27;19911;-80